EFET

Enontekio Airport

Enontekio, Finland
METAR EFET 152150Z AUTO 15006KT 120V190 9999 FEW047 BKN079 10/08 Q1011
Observed Flight Rules
Aug-15 @ 21:50 UTC (37 minutes ago) Visual Flight Rules
Wind Visibility Clouds
150° at 6 knots 10,000+ meters
  • Few at 4,700' AGL
  • Broken at 7,900' AGL
Temperatures Readings
Current 10°C / 50°F
Dewpoint 8°C / 46°F
Humidity 88%
Altimeter 29.85" Hg
Pressure 1011 hPa
Elevation 306
METAR EFET 152150Z AUTO 15006KT 120V190 9999 FEW047 BKN079 10/08 Q1011
Observed Flight Rules
Aug-15 @ 21:50 UTC
(37 minutes ago)
VFR
Wind Visibility
150° at 6 knots 10,000+ meters
Clouds
  • Few at 4,700' AGL
  • Broken at 7,900' AGL
Temperature Dewpoint
10°C / 50°F 8°C / 46°F
Humidity Altimeter Pressure
88% 29.85" Hg 1011 hPa